Time;durP1;ratioP1;P1;durP2;ratioP2;P2;SDS_P1;SDS_P2;PMS_P1;PMS_P2;Temp;Humidity;BMP_temperature;BMP_pressure;BME280_temperature;BME280_humidity;BME280_pressure;Samples;Min_cycle;Max_cycle;Signal;HPM_P1;HPM_P2
2021/06/25 00:01:54;;;;;;;3.80;3.40;;;16.00;99.90;;;;;;5120049;22;20495;-67
2021/06/25 00:04:22;;;;;;;3.23;2.93;;;16.00;99.90;;;;;;5047959;28;20455;-67
2021/06/25 00:06:49;;;;;;;3.40;3.10;;;16.00;99.90;;;;;;5047796;28;20546;-67
2021/06/25 00:09:16;;;;;;;2.87;2.67;;;16.00;99.90;;;;;;5047772;28;20961;-66
2021/06/25 00:11:43;;;;;;;3.70;3.13;;;15.90;99.90;;;;;;5048039;28;20498;-67
2021/06/25 00:14:09;;;;;;;3.50;2.50;;;15.90;99.90;;;;;;5048750;28;20462;-67
2021/06/25 00:16:36;;;;;;;2.97;2.67;;;15.80;99.90;;;;;;5048202;28;20479;-68
2021/06/25 00:19:03;;;;;;;3.10;2.83;;;15.80;99.90;;;;;;5048468;28;20459;-67
2021/06/25 00:21:31;;;;;;;2.97;2.67;;;15.70;99.90;;;;;;5049014;28;20486;-67
2021/06/25 00:23:58;;;;;;;3.57;2.83;;;15.70;99.90;;;;;;5051404;28;20463;-67
2021/06/25 00:26:25;;;;;;;3.00;2.70;;;15.80;99.90;;;;;;5023115;28;21382;-67
2021/06/25 00:28:51;;;;;;;3.90;2.43;;;15.80;99.90;;;;;;5020368;28;20549;-67
2021/06/25 00:31:18;;;;;;;2.97;2.77;;;15.80;99.90;;;;;;5028141;28;20985;-68
2021/06/25 00:33:45;;;;;;;2.80;2.60;;;15.80;99.90;;;;;;5031046;28;20464;-67
2021/06/25 00:36:11;;;;;;;3.53;2.63;;;15.80;99.90;;;;;;5030681;28;20461;-68
2021/06/25 00:38:39;;;;;;;2.37;2.17;;;15.70;99.90;;;;;;5015061;28;20465;-67
2021/06/25 00:41:06;;;;;;;2.70;2.50;;;15.70;99.90;;;;;;5011718;28;20489;-67
2021/06/25 00:43:33;;;;;;;2.60;2.40;;;15.80;99.90;;;;;;5014324;28;20863;-67
2021/06/25 00:46:00;;;;;;;2.60;2.07;;;15.80;99.90;;;;;;5019586;28;20453;-67
2021/06/25 00:48:26;;;;;;;3.43;2.50;;;15.70;99.90;;;;;;5009029;28;20990;-66
2021/06/25 00:50:53;;;;;;;4.20;2.37;;;15.70;99.90;;;;;;5008599;28;20515;-68
2021/06/25 00:53:20;;;;;;;2.27;2.07;;;15.80;99.90;;;;;;5009989;28;20484;-66
2021/06/25 00:55:48;;;;;;;4.03;2.07;;;15.80;99.90;;;;;;5011037;28;20472;-67
2021/06/25 00:58:16;;;;;;;3.03;2.10;;;15.80;99.90;;;;;;5011914;28;20725;-67
2021/06/25 01:00:43;;;;;;;1.90;1.80;;;15.70;99.90;;;;;;5010899;28;20481;-68
2021/06/25 01:03:10;;;;;;;1.93;1.80;;;15.80;99.90;;;;;;5011744;28;20464;-68
2021/06/25 01:05:38;;;;;;;2.80;2.03;;;15.80;99.90;;;;;;5011452;28;20473;-66
2021/06/25 01:08:06;;;;;;;2.30;2.10;;;15.80;99.90;;;;;;5011474;28;20468;-68
2021/06/25 01:10:33;;;;;;;1.90;1.73;;;15.80;99.90;;;;;;5010789;28;20481;-67
2021/06/25 01:13:01;;;;;;;2.00;1.67;;;15.80;99.90;;;;;;5011509;28;20468;-67
2021/06/25 01:15:28;;;;;;;1.70;1.60;;;15.80;99.90;;;;;;5011327;28;20457;-67
2021/06/25 01:17:54;;;;;;;1.60;1.50;;;15.70;99.90;;;;;;5011492;28;20500;-67
2021/06/25 01:20:26;;;;;;;2.43;1.50;;;15.70;99.90;;;;;;5010744;28;20464;-67
2021/06/25 01:22:55;;;;;;;2.43;1.67;;;15.70;99.90;;;;;;5011218;28;20967;-67
2021/06/25 01:25:23;;;;;;;1.67;1.53;;;15.70;99.90;;;;;;5011313;28;20469;-68
2021/06/25 01:27:52;;;;;;;1.50;1.40;;;15.70;99.90;;;;;;5011169;28;20972;-67
2021/06/25 01:30:21;;;;;;;2.53;1.50;;;15.70;99.90;;;;;;5011000;28;20484;-66
2021/06/25 01:32:48;;;;;;;1.50;1.40;;;15.70;99.90;;;;;;5010906;28;20948;-67
2021/06/25 01:35:15;;;;;;;1.53;1.43;;;15.70;99.90;;;;;;5010958;28;20465;-66
2021/06/25 01:37:44;;;;;;;1.97;1.40;;;15.70;99.90;;;;;;5010738;28;20489;-66
2021/06/25 01:40:14;;;;;;;1.87;1.67;;;15.70;99.90;;;;;;5010406;28;20473;-67
2021/06/25 01:42:42;;;;;;;1.40;1.30;;;15.70;99.90;;;;;;5011084;28;20472;-68
2021/06/25 01:45:11;;;;;;;1.73;1.63;;;15.70;99.90;;;;;;5010968;28;20465;-68
2021/06/25 01:47:40;;;;;;;5.40;1.70;;;15.60;99.90;;;;;;5010537;28;20472;-68
2021/06/25 01:50:08;;;;;;;1.70;1.60;;;15.70;99.90;;;;;;5010383;28;20531;-68
2021/06/25 01:52:35;;;;;;;1.60;1.50;;;15.70;99.90;;;;;;5010407;28;20461;-68
2021/06/25 01:55:02;;;;;;;2.33;1.70;;;15.60;99.90;;;;;;5010833;28;20461;-68
2021/06/25 01:57:32;;;;;;;2.00;1.60;;;15.70;99.90;;;;;;5010488;28;20574;-67
2021/06/25 01:59:59;;;;;;;1.80;1.70;;;15.70;99.90;;;;;;5010358;28;20465;-68
2021/06/25 02:02:26;;;;;;;2.03;1.60;;;15.70;99.90;;;;;;5010305;28;20492;-68
2021/06/25 02:04:53;;;;;;;1.40;1.30;;;15.70;99.90;;;;;;5010471;28;20863;-67
2021/06/25 02:07:19;;;;;;;2.40;1.87;;;15.70;99.90;;;;;;5009729;28;20468;-67
2021/06/25 02:09:46;;;;;;;1.60;1.50;;;15.70;99.90;;;;;;5009989;28;20472;-68
2021/06/25 02:12:13;;;;;;;2.00;1.43;;;15.70;99.90;;;;;;5010428;28;20489;-67
2021/06/25 02:14:41;;;;;;;3.00;1.80;;;15.70;99.90;;;;;;5010092;28;20465;-66
2021/06/25 02:17:07;;;;;;;1.73;1.63;;;15.70;99.90;;;;;;5010445;28;20497;-68
2021/06/25 02:19:34;;;;;;;2.20;2.00;;;15.60;99.90;;;;;;5009581;28;20481;-67
2021/06/25 02:22:01;;;;;;;2.30;2.10;;;15.70;99.90;;;;;;5010235;28;20837;-68
2021/06/25 02:24:28;;;;;;;3.20;2.27;;;15.60;99.90;;;;;;5010109;28;21022;-67
2021/06/25 02:26:55;;;;;;;2.00;1.80;;;15.70;99.90;;;;;;5010310;28;20453;-67
2021/06/25 02:29:21;;;;;;;2.60;2.13;;;15.70;99.90;;;;;;5008957;28;20957;-67
2021/06/25 02:31:50;;;;;;;2.50;2.30;;;15.60;99.90;;;;;;5009518;28;20500;-67
2021/06/25 02:34:16;;;;;;;2.20;2.00;;;15.60;99.90;;;;;;5009986;28;20461;-67
2021/06/25 02:36:43;;;;;;;3.30;2.57;;;15.60;99.90;;;;;;5009985;28;20931;-68
2021/06/25 02:39:10;;;;;;;2.60;2.40;;;15.60;99.90;;;;;;5010422;28;20461;-67
2021/06/25 02:41:36;;;;;;;2.30;2.00;;;15.60;99.90;;;;;;5009720;28;20492;-67
2021/06/25 02:44:04;;;;;;;3.00;2.23;;;15.60;99.90;;;;;;5010256;28;20473;-68
2021/06/25 02:46:30;;;;;;;2.20;2.00;;;15.60;99.90;;;;;;5009837;28;20464;-67
2021/06/25 02:48:58;;;;;;;3.80;2.33;;;15.60;99.90;;;;;;5009867;28;20460;-67
2021/06/25 02:51:25;;;;;;;2.90;2.27;;;15.60;99.90;;;;;;5009254;28;20485;-67
2021/06/25 02:53:52;;;;;;;3.00;2.33;;;15.50;99.90;;;;;;5009909;28;20492;-67
2021/06/25 02:56:18;;;;;;;2.60;2.40;;;15.60;99.90;;;;;;5009763;28;20476;-66
2021/06/25 02:58:45;;;;;;;3.20;2.33;;;15.60;99.90;;;;;;5009545;28;20493;-67
2021/06/25 03:01:12;;;;;;;2.97;2.47;;;15.60;99.90;;;;;;5009302;28;20493;-67
2021/06/25 03:03:39;;;;;;;2.40;2.20;;;15.60;99.90;;;;;;5009550;28;20469;-68
2021/06/25 03:06:07;;;;;;;4.47;2.13;;;15.60;99.90;;;;;;5009814;28;20461;-66
2021/06/25 03:08:34;;;;;;;2.70;2.23;;;15.60;99.90;;;;;;5009482;28;20461;-66
2021/06/25 03:11:03;;;;;;;2.77;2.23;;;15.60;99.90;;;;;;5009002;28;20481;-67
2021/06/25 03:13:30;;;;;;;2.17;1.97;;;15.60;99.90;;;;;;5009776;28;20817;-67
2021/06/25 03:15:57;;;;;;;2.60;2.40;;;15.60;99.90;;;;;;5009717;28;20461;-67
2021/06/25 03:18:24;;;;;;;2.30;2.10;;;15.60;99.90;;;;;;5010001;28;20496;-67
2021/06/25 03:20:50;;;;;;;2.77;2.07;;;15.60;99.90;;;;;;5012916;28;20899;-67
2021/06/25 03:23:18;;;;;;;3.27;2.00;;;15.60;99.90;;;;;;5013523;28;20471;-67
2021/06/25 03:25:45;;;;;;;2.07;1.87;;;15.60;99.90;;;;;;5013430;28;20463;-67
2021/06/25 03:28:12;;;;;;;2.10;1.90;;;15.50;99.90;;;;;;5013537;28;20467;-67
2021/06/25 03:30:39;;;;;;;2.27;2.07;;;15.50;99.90;;;;;;5012554;28;20503;-67
2021/06/25 03:33:06;;;;;;;2.70;1.80;;;15.50;99.90;;;;;;5013508;28;20468;-68
2021/06/25 03:35:33;;;;;;;2.87;2.20;;;15.50;99.90;;;;;;5032272;28;20875;-69
2021/06/25 03:37:59;;;;;;;5.27;2.80;;;15.50;99.90;;;;;;5032940;28;20499;-68
2021/06/25 03:40:31;;;;;;;5.00;2.27;;;15.50;99.90;;;;;;5032431;28;20467;-69
2021/06/25 03:42:58;;;;;;;2.40;2.20;;;15.50;99.90;;;;;;5031164;28;21032;-68
2021/06/25 03:45:24;;;;;;;2.40;2.20;;;15.50;99.90;;;;;;5012729;28;20457;-68
2021/06/25 03:47:52;;;;;;;2.27;2.03;;;15.50;99.90;;;;;;5013146;28;20457;-69
2021/06/25 03:50:19;;;;;;;2.43;2.23;;;15.50;99.90;;;;;;5012718;28;20956;-68
2021/06/25 03:52:45;;;;;;;2.35;2.15;;;15.50;99.90;;;;;;5012867;28;20470;-67
2021/06/25 03:55:13;;;;;;;2.50;2.10;;;15.50;99.90;;;;;;5013480;28;20199;-68
2021/06/25 03:57:42;;;;;;;3.40;2.03;;;15.50;99.90;;;;;;5027036;28;20983;-67
2021/06/25 04:00:12;;;;;;;3.40;2.40;;;15.50;99.90;;;;;;5011441;28;20464;-67
2021/06/25 04:02:39;;;;;;;2.23;2.03;;;15.50;99.90;;;;;;5023873;28;20490;-68
2021/06/25 04:05:09;;;;;;;2.13;1.97;;;15.50;99.90;;;;;;5027343;28;20951;-68
2021/06/25 04:07:35;;;;;;;2.10;1.90;;;15.50;99.90;;;;;;5032071;28;20488;-67
2021/06/25 04:10:03;;;;;;;2.27;1.97;;;15.50;99.90;;;;;;5029567;28;20460;-68
2021/06/25 04:12:31;;;;;;;2.10;1.90;;;15.50;99.90;;;;;;5038277;28;20479;-66
2021/06/25 04:14:59;;;;;;;2.40;1.87;;;15.50;99.90;;;;;;5034155;28;20547;-67
2021/06/25 04:17:26;;;;;;;2.10;2.00;;;15.50;99.90;;;;;;5030676;28;21172;-65
2021/06/25 04:19:52;;;;;;;1.83;1.73;;;15.50;99.90;;;;;;5030947;28;20951;-68
2021/06/25 04:22:20;;;;;;;1.90;1.80;;;15.50;99.90;;;;;;5031586;28;20995;-67
2021/06/25 04:24:47;;;;;;;2.43;1.80;;;15.50;99.90;;;;;;5031470;28;20499;-66
2021/06/25 04:27:14;;;;;;;2.47;2.10;;;15.40;99.90;;;;;;5030888;28;20794;-67
2021/06/25 04:29:41;;;;;;;2.70;1.73;;;15.40;99.90;;;;;;5028579;28;20456;-67
2021/06/25 04:32:11;;;;;;;2.80;2.07;;;15.50;99.90;;;;;;5030201;28;20537;-66
2021/06/25 04:34:37;;;;;;;2.07;1.97;;;15.50;99.90;;;;;;5030324;28;20838;-66
2021/06/25 04:37:05;;;;;;;1.97;1.87;;;15.50;99.90;;;;;;5031436;28;20468;-67
2021/06/25 04:39:31;;;;;;;2.53;1.80;;;15.50;99.90;;;;;;5030186;28;20492;-67
2021/06/25 04:41:58;;;;;;;3.30;2.40;;;15.50;99.90;;;;;;5030682;28;20990;-66
2021/06/25 04:44:25;;;;;;;3.07;2.17;;;15.50;99.90;;;;;;5030888;28;20472;-67
2021/06/25 04:46:52;;;;;;;2.10;1.90;;;15.40;99.90;;;;;;5030799;28;20869;-67
2021/06/25 04:49:20;;;;;;;2.97;2.37;;;15.40;99.90;;;;;;5030564;28;20463;-66
2021/06/25 04:51:46;;;;;;;1.90;1.70;;;15.40;99.90;;;;;;5030534;28;20492;-67
2021/06/25 04:54:13;;;;;;;3.67;2.03;;;15.40;99.90;;;;;;5030678;28;20461;-67
2021/06/25 04:56:40;;;;;;;2.20;2.00;;;15.40;99.90;;;;;;5030725;28;20464;-67
2021/06/25 04:59:07;;;;;;;6.90;2.53;;;15.40;99.90;;;;;;5030241;28;20491;-66
2021/06/25 05:01:33;;;;;;;2.80;2.03;;;15.50;99.90;;;;;;5042289;28;20487;-66
2021/06/25 05:04:00;;;;;;;2.93;2.57;;;15.50;99.90;;;;;;5050395;28;20460;-67
2021/06/25 05:06:28;;;;;;;3.60;2.13;;;15.50;99.90;;;;;;5050433;28;20505;-67
2021/06/25 05:08:55;;;;;;;2.20;2.00;;;15.50;99.90;;;;;;5050137;28;20455;-67
2021/06/25 05:11:21;;;;;;;4.80;2.03;;;15.50;99.90;;;;;;5049810;28;20487;-66
2021/06/25 05:13:48;;;;;;;1.70;1.60;;;15.40;99.90;;;;;;5050517;28;20466;-66
2021/06/25 05:16:15;;;;;;;2.50;2.30;;;15.40;99.90;;;;;;5050692;28;20460;-67
2021/06/25 05:18:42;;;;;;;2.80;2.27;;;15.40;99.90;;;;;;5050649;28;21053;-66
2021/06/25 05:21:08;;;;;;;2.70;2.00;;;15.50;99.90;;;;;;5050596;28;20479;-68
2021/06/25 05:23:36;;;;;;;2.17;1.97;;;15.50;99.90;;;;;;5050751;28;20558;-67
2021/06/25 05:26:03;;;;;;;2.20;2.00;;;15.50;99.90;;;;;;5050779;28;20833;-68
2021/06/25 05:28:31;;;;;;;4.13;2.10;;;15.50;99.90;;;;;;5050883;28;20466;-68
2021/06/25 05:30:58;;;;;;;2.83;2.00;;;15.50;99.90;;;;;;5050186;28;20478;-68
2021/06/25 05:33:25;;;;;;;2.13;2.00;;;15.50;99.90;;;;;;5050392;28;20460;-67
2021/06/25 05:35:51;;;;;;;2.73;2.10;;;15.60;99.90;;;;;;5050784;28;20463;-66
2021/06/25 05:38:18;;;;;;;2.43;1.80;;;15.60;99.90;;;;;;5050527;28;20506;-67
2021/06/25 05:40:46;;;;;;;2.10;1.87;;;15.60;99.90;;;;;;5049687;28;20856;-68
2021/06/25 05:43:13;;;;;;;2.43;1.60;;;15.60;99.90;;;;;;5049917;28;20875;-67
2021/06/25 05:45:40;;;;;;;1.67;1.57;;;15.60;99.90;;;;;;5050161;28;20455;-67
2021/06/25 05:48:08;;;;;;;1.70;1.60;;;15.60;99.90;;;;;;5050252;28;20462;-67
2021/06/25 05:50:37;;;;;;;1.60;1.50;;;15.60;99.90;;;;;;5049559;28;21017;-68
2021/06/25 05:53:04;;;;;;;2.33;1.60;;;15.50;99.90;;;;;;5050048;28;20965;-68
2021/06/25 05:55:31;;;;;;;1.40;1.30;;;15.60;99.90;;;;;;5049567;28;20459;-66
2021/06/25 05:57:59;;;;;;;1.40;1.30;;;15.60;99.90;;;;;;5049741;28;20542;-67
2021/06/25 06:00:25;;;;;;;2.33;1.30;;;15.70;99.90;;;;;;5048871;28;20927;-68
2021/06/25 06:02:52;;;;;;;1.40;1.30;;;15.70;99.90;;;;;;5049678;28;20467;-67
2021/06/25 06:05:19;;;;;;;4.70;1.67;;;15.70;99.90;;;;;;5182591;22;20948;-73
2021/06/25 06:07:46;;;;;;;1.43;1.10;;;15.80;99.90;;;;;;5036551;28;20534;-73
2021/06/25 06:10:15;;;;;;;3.00;1.30;;;15.80;99.90;;;;;;5048382;28;20466;-73
2021/06/25 06:12:42;;;;;;;3.00;1.33;;;15.90;99.90;;;;;;5048882;28;20882;-73
2021/06/25 06:15:11;;;;;;;1.50;1.17;;;15.80;99.90;;;;;;5048957;28;20802;-72
2021/06/25 06:17:40;;;;;;;1.50;1.33;;;15.80;99.90;;;;;;5048875;28;20470;-73
2021/06/25 06:20:09;;;;;;;1.60;1.50;;;15.80;99.90;;;;;;5049076;28;21020;-73
2021/06/25 06:31:14;;;;;;;1.73;1.50;;;15.90;99.90;;;;;;5048482;28;20509;-73
2021/06/25 06:33:44;;;;;;;1.63;1.53;;;15.90;99.90;;;;;;5048786;28;20554;-73
2021/06/25 06:36:16;;;;;;;3.60;1.57;;;15.90;99.90;;;;;;5048673;28;20467;-73
2021/06/25 06:38:45;;;;;;;1.80;1.70;;;15.90;99.90;;;;;;5048934;28;20487;-73
2021/06/25 06:41:12;;;;;;;1.83;1.70;;;16.00;99.90;;;;;;5048054;28;20488;-73
2021/06/25 06:43:39;;;;;;;1.90;1.70;;;16.00;99.90;;;;;;5030689;28;20946;-73
2021/06/25 06:46:09;;;;;;;2.90;1.70;;;16.00;99.90;;;;;;5028360;28;20534;-73
2021/06/25 06:48:36;;;;;;;1.83;1.67;;;16.00;99.90;;;;;;5036690;28;20517;-73
2021/06/25 06:51:03;;;;;;;2.63;1.90;;;16.00;99.90;;;;;;5047604;28;20533;-73
2021/06/25 06:53:29;;;;;;;2.87;2.03;;;16.00;99.90;;;;;;5048174;28;20455;-73
2021/06/25 06:55:56;;;;;;;5.70;2.97;;;16.00;99.90;;;;;;5048409;28;20527;-73
2021/06/25 06:58:23;;;;;;;3.17;2.67;;;16.00;99.90;;;;;;5048099;28;20491;-73
2021/06/25 07:00:49;;;;;;;3.33;2.23;;;16.00;99.90;;;;;;5047645;28;20483;-73
2021/06/25 07:03:17;;;;;;;3.80;3.00;;;16.00;99.90;;;;;;5047710;28;20447;-73
2021/06/25 07:05:44;;;;;;;6.00;2.70;;;16.00;99.90;;;;;;5048287;28;20471;-73
2021/06/25 07:08:11;;;;;;;2.77;2.40;;;16.00;99.90;;;;;;5047958;28;20459;-73
2021/06/25 07:10:38;;;;;;;3.00;2.33;;;16.00;99.90;;;;;;5047719;28;20484;-73
2021/06/25 07:13:05;;;;;;;4.40;2.80;;;16.00;99.90;;;;;;5047745;28;20459;-73
2021/06/25 07:15:32;;;;;;;4.23;2.60;;;16.00;99.90;;;;;;5048344;28;20471;-73
2021/06/25 07:18:00;;;;;;;3.53;2.40;;;16.00;99.90;;;;;;5048059;28;20459;-73
2021/06/25 07:20:28;;;;;;;2.33;2.10;;;16.00;99.90;;;;;;5047158;28;20483;-73
2021/06/25 07:22:55;;;;;;;3.33;2.10;;;16.10;99.90;;;;;;5048321;28;20459;-73
2021/06/25 07:25:22;;;;;;;2.40;2.20;;;16.10;99.90;;;;;;5046935;28;20475;-73
2021/06/25 07:27:49;;;;;;;2.43;2.23;;;16.10;99.90;;;;;;5044836;28;20464;-72
2021/06/25 07:30:17;;;;;;;4.17;2.40;;;16.10;99.90;;;;;;5027052;28;20876;-73
2021/06/25 07:32:44;;;;;;;2.93;2.70;;;16.10;99.90;;;;;;5028371;28;20468;-73
2021/06/25 07:35:11;;;;;;;3.00;2.50;;;16.10;99.90;;;;;;5027548;28;20468;-73
2021/06/25 07:37:39;;;;;;;2.80;2.60;;;16.10;99.90;;;;;;5028249;28;20820;-73
2021/06/25 07:40:09;;;;;;;5.00;3.00;;;16.20;99.90;;;;;;5027177;28;20491;-73
2021/06/25 07:42:36;;;;;;;3.53;2.80;;;16.20;99.90;;;;;;5028364;28;20989;-72
2021/06/25 07:45:07;;;;;;;2.90;2.53;;;16.20;99.90;;;;;;5028265;28;20464;-73
2021/06/25 07:47:34;;;;;;;3.47;3.17;;;16.30;99.90;;;;;;5028199;28;20492;-73
2021/06/25 07:50:01;;;;;;;2.97;2.70;;;16.30;99.90;;;;;;5027518;28;20460;-73
2021/06/25 07:52:28;;;;;;;3.63;2.70;;;16.40;99.90;;;;;;5027547;28;20706;-73
2021/06/25 07:54:56;;;;;;;2.80;2.27;;;16.50;99.90;;;;;;5028110;28;21052;-73
2021/06/25 07:57:22;;;;;;;3.17;2.83;;;16.50;99.90;;;;;;5027356;28;20460;-73
2021/06/25 07:59:49;;;;;;;4.30;3.03;;;16.60;99.90;;;;;;5027431;28;20484;-73
2021/06/25 08:02:16;;;;;;;3.37;3.07;;;16.60;99.90;;;;;;5027513;28;20484;-73
2021/06/25 08:04:45;;;;;;;3.73;2.90;;;16.60;99.90;;;;;;5028017;28;20476;-73
2021/06/25 08:07:12;;;;;;;4.40;2.40;;;16.60;99.90;;;;;;5031023;28;20799;-73
2021/06/25 08:09:39;;;;;;;3.63;2.80;;;16.70;99.90;;;;;;5030931;28;20453;-73
2021/06/25 08:12:09;;;;;;;2.90;2.40;;;16.80;99.90;;;;;;5031269;28;21021;-73
2021/06/25 08:14:35;;;;;;;2.57;2.37;;;16.80;99.90;;;;;;5031399;28;20471;-73
2021/06/25 08:17:02;;;;;;;3.13;2.40;;;16.80;99.90;;;;;;5031318;28;20990;-73
2021/06/25 08:19:29;;;;;;;3.33;3.03;;;16.90;99.90;;;;;;5030319;28;20483;-73
2021/06/25 08:21:56;;;;;;;6.23;2.73;;;16.90;99.90;;;;;;5031218;28;20483;-73
2021/06/25 08:24:23;;;;;;;3.87;2.60;;;16.90;99.90;;;;;;5030578;28;20464;-73
2021/06/25 08:26:51;;;;;;;2.97;2.67;;;17.00;99.90;;;;;;5031174;28;20469;-73
2021/06/25 08:29:19;;;;;;;4.20;2.90;;;17.00;99.90;;;;;;5030317;28;21038;-73
2021/06/25 08:31:46;;;;;;;2.73;2.53;;;17.10;99.90;;;;;;5031134;28;20483;-73
2021/06/25 08:34:13;;;;;;;2.90;2.63;;;17.10;99.90;;;;;;5030787;28;20831;-73
2021/06/25 08:36:41;;;;;;;3.20;2.90;;;17.20;99.90;;;;;;5031105;28;20585;-73
2021/06/25 08:39:08;;;;;;;2.90;2.40;;;17.20;99.90;;;;;;5030583;28;20484;-73
2021/06/25 08:41:36;;;;;;;3.20;2.70;;;17.30;99.90;;;;;;5030565;28;20563;-75
2021/06/25 08:44:03;;;;;;;2.93;2.37;;;17.30;99.90;;;;;;5030697;28;20464;-74
2021/06/25 08:46:33;;;;;;;2.83;2.63;;;17.30;99.90;;;;;;5030701;28;20526;-74
2021/06/25 08:49:03;;;;;;;2.70;2.50;;;17.30;99.90;;;;;;5030740;28;20452;-74
2021/06/25 08:51:30;;;;;;;3.33;2.50;;;17.30;99.90;;;;;;5029646;28;20484;-74
2021/06/25 08:53:56;;;;;;;2.60;2.40;;;17.20;99.90;;;;;;5030822;28;20472;-74
2021/06/25 08:56:23;;;;;;;8.23;2.50;;;17.10;99.90;;;;;;5030357;28;20834;-74
2021/06/25 08:58:50;;;;;;;3.07;2.77;;;17.00;99.90;;;;;;5030615;28;20463;-74
2021/06/25 09:01:18;;;;;;;2.73;2.53;;;16.90;99.90;;;;;;5039689;28;20990;-74
2021/06/25 09:03:53;;;;;;;3.00;2.80;;;16.90;99.90;;;;;;5050292;28;20470;-75
2021/06/25 09:06:20;;;;;;;3.00;2.50;;;16.90;99.90;;;;;;5048887;28;20845;-74
2021/06/25 09:08:47;;;;;;;2.67;2.47;;;16.90;99.90;;;;;;5039362;28;20467;-74
2021/06/25 09:11:19;;;;;;;2.77;2.57;;;16.80;99.90;;;;;;5029552;28;20491;-74
2021/06/25 09:13:46;;;;;;;2.93;2.63;;;16.80;99.90;;;;;;5030322;28;20491;-73
2021/06/25 09:16:21;;;;;;;3.10;2.90;;;16.80;99.90;;;;;;5029760;28;20483;-74
2021/06/25 09:19:05;;;;;;;3.33;3.03;;;16.80;99.90;;;;;;5029947;28;20470;-74
2021/06/25 09:21:37;;;;;;;3.70;3.20;;;16.80;99.90;;;;;;5029756;28;20507;-75
2021/06/25 09:24:18;;;;;;;4.83;3.07;;;16.80;99.90;;;;;;5027296;28;20464;-73
2021/06/25 09:26:47;;;;;;;3.67;3.37;;;16.70;99.90;;;;;;5027924;28;20834;-73
2021/06/25 09:29:16;;;;;;;3.60;3.30;;;16.60;99.90;;;;;;5026732;28;20559;-74
2021/06/25 09:31:43;;;;;;;4.50;4.10;;;16.50;99.90;;;;;;5026529;28;20854;-74
2021/06/25 09:34:11;;;;;;;4.23;3.83;;;16.50;99.90;;;;;;5026227;28;20947;-73
2021/06/25 09:36:39;;;;;;;4.57;4.17;;;16.50;99.90;;;;;;5026621;28;20863;-73
2021/06/25 09:39:09;;;;;;;4.27;3.57;;;16.50;99.90;;;;;;5026503;28;20460;-74
2021/06/25 09:41:37;;;;;;;3.97;3.50;;;16.50;99.90;;;;;;5025567;28;21045;-74
2021/06/25 09:44:08;;;;;;;4.70;3.37;;;16.60;99.90;;;;;;5026750;28;20465;-74
2021/06/25 09:46:37;;;;;;;4.40;3.30;;;16.60;99.90;;;;;;5026208;28;20461;-74
2021/06/25 09:49:06;;;;;;;4.40;4.07;;;16.60;99.90;;;;;;5026466;28;20897;-74
2021/06/25 09:51:35;;;;;;;3.97;3.63;;;16.70;99.90;;;;;;5026041;28;20484;-74
2021/06/25 09:54:06;;;;;;;4.27;3.87;;;16.70;99.90;;;;;;5026386;28;20479;-74
2021/06/25 09:56:36;;;;;;;4.00;3.70;;;16.70;99.90;;;;;;5026435;28;20472;-74
2021/06/25 10:02:32;;;;;;;4.57;4.17;;;16.80;99.90;;;;;;5015224;28;20479;-74
2021/06/25 10:05:02;;;;;;;4.43;4.03;;;16.90;99.90;;;;;;5025096;28;20472;-74
2021/06/25 10:07:31;;;;;;;5.10;4.60;;;17.00;99.90;;;;;;5025860;28;20460;-74
2021/06/25 10:10:01;;;;;;;5.37;4.87;;;17.00;99.90;;;;;;5025172;28;20874;-74
2021/06/25 10:12:28;;;;;;;5.90;4.97;;;17.00;99.90;;;;;;5025910;28;20472;-74
2021/06/25 10:14:56;;;;;;;4.73;4.33;;;17.00;99.90;;;;;;5026282;28;20471;-74
2021/06/25 10:17:27;;;;;;;5.60;5.10;;;17.00;99.90;;;;;;5025854;28;20466;-74
2021/06/25 10:19:59;;;;;;;5.50;5.00;;;17.00;99.90;;;;;;5025759;28;20488;-74
2021/06/25 10:22:28;;;;;;;6.23;5.63;;;16.90;99.90;;;;;;5025160;28;20480;-74
2021/06/25 10:24:57;;;;;;;5.80;5.30;;;16.90;99.90;;;;;;5017048;28;20488;-74
2021/06/25 10:27:24;;;;;;;5.97;5.47;;;16.90;99.90;;;;;;5013816;28;20468;-74
2021/06/25 10:29:52;;;;;;;5.50;4.77;;;16.90;99.90;;;;;;5024458;28;20824;-74
2021/06/25 10:32:19;;;;;;;5.07;4.67;;;16.90;99.90;;;;;;5025372;28;20850;-74
2021/06/25 10:34:47;;;;;;;5.30;4.80;;;16.90;99.90;;;;;;5025412;28;20462;-74
2021/06/25 10:37:17;;;;;;;6.30;4.60;;;16.90;99.90;;;;;;5025407;28;20464;-74
2021/06/25 10:39:43;;;;;;;4.83;4.43;;;17.00;99.90;;;;;;5025382;28;20480;-74
2021/06/25 10:42:12;;;;;;;6.63;4.87;;;17.00;99.90;;;;;;5024978;28;20476;-74
2021/06/25 10:44:42;;;;;;;6.10;5.17;;;17.00;99.90;;;;;;5025612;28;20464;-74
2021/06/25 10:47:17;;;;;;;6.13;5.13;;;17.00;99.90;;;;;;5024889;28;21065;-74
2021/06/25 10:50:19;;;;;;;5.93;4.80;;;17.00;99.90;;;;;;5024471;28;20468;-74
2021/06/25 10:53:17;;;;;;;6.90;5.10;;;17.00;99.90;;;;;;5020509;28;20475;-74
2021/06/25 10:56:01;;;;;;;6.30;5.70;;;17.00;99.90;;;;;;5025452;28;21034;-74
2021/06/25 10:58:29;;;;;;;8.43;5.47;;;17.10;99.90;;;;;;5024727;28;20583;-74
2021/06/25 11:00:58;;;;;;;6.10;4.97;;;17.20;99.90;;;;;;5031482;28;21138;-74
2021/06/25 11:03:41;;;;;;;5.70;5.10;;;17.20;99.90;;;;;;5044596;28;20467;-74
2021/06/25 11:06:10;;;;;;;6.13;5.53;;;17.40;99.90;;;;;;5044567;28;20486;-73
2021/06/25 11:09:00;;;;;;;6.77;5.17;;;17.50;99.90;;;;;;5044878;28;20464;-74
2021/06/25 11:11:27;;;;;;;4.93;4.53;;;17.50;99.90;;;;;;5043707;28;20626;-74
2021/06/25 11:13:55;;;;;;;5.40;4.90;;;17.60;99.90;;;;;;5044832;28;20527;-73
2021/06/25 11:16:22;;;;;;;5.33;4.87;;;17.50;99.90;;;;;;5044409;28;20464;-74
2021/06/25 11:18:49;;;;;;;5.00;4.50;;;17.40;99.90;;;;;;5044647;28;20467;-74
2021/06/25 11:21:16;;;;;;;4.97;4.47;;;17.40;99.90;;;;;;5044091;28;20494;-74
2021/06/25 11:23:45;;;;;;;5.30;4.77;;;17.50;99.90;;;;;;5044293;28;20635;-74
2021/06/25 11:26:24;;;;;;;7.90;4.80;;;17.50;99.90;;;;;;5044177;28;20459;-74
2021/06/25 11:28:51;;;;;;;6.33;5.67;;;17.50;99.90;;;;;;5044877;28;20470;-74
2021/06/25 11:31:22;;;;;;;6.53;5.93;;;17.70;99.90;;;;;;5044477;28;20484;-75
2021/06/25 11:33:55;;;;;;;6.90;6.20;;;17.80;99.90;;;;;;5044759;28;20471;-74
2021/06/25 11:36:27;;;;;;;6.80;6.10;;;17.90;99.90;;;;;;5044433;28;20550;-74
2021/06/25 11:38:56;;;;;;;7.47;6.13;;;17.90;99.90;;;;;;5045490;28;20968;-74
2021/06/25 11:41:25;;;;;;;7.60;6.77;;;17.90;99.90;;;;;;5048117;28;20491;-74
2021/06/25 11:43:52;;;;;;;8.13;7.33;;;17.90;99.90;;;;;;5048388;28;21047;-75
2021/06/25 11:46:20;;;;;;;6.97;6.30;;;17.80;99.90;;;;;;5047825;28;20459;-74
2021/06/25 11:48:48;;;;;;;8.60;6.50;;;17.80;99.90;;;;;;5048756;28;20842;-74
2021/06/25 11:51:17;;;;;;;6.90;6.20;;;17.80;99.90;;;;;;5047701;28;20533;-74
2021/06/25 11:53:45;;;;;;;6.97;6.27;;;17.90;99.90;;;;;;5048621;28;20482;-74
2021/06/25 11:56:19;;;;;;;9.67;6.90;;;17.90;99.90;;;;;;5048064;28;20459;-74
2021/06/25 11:58:59;;;;;;;7.87;6.80;;;17.90;99.90;;;;;;5048417;28;20470;-74
2021/06/25 12:01:27;;;;;;;7.73;5.97;;;17.90;99.90;;;;;;5047624;28;20510;-74
2021/06/25 12:03:56;;;;;;;5.57;5.00;;;17.90;99.90;;;;;;5048116;28;20466;-74
2021/06/25 12:06:23;;;;;;;7.77;6.27;;;18.00;99.90;;;;;;5041990;28;20488;-74
2021/06/25 12:08:55;;;;;;;5.87;5.37;;;18.10;99.90;;;;;;5028138;28;20464;-75
2021/06/25 12:11:23;;;;;;;5.33;4.83;;;18.10;99.90;;;;;;5026405;28;20472;-74
2021/06/25 12:13:58;;;;;;;5.20;4.70;;;18.10;99.90;;;;;;5027511;28;20475;-74
2021/06/25 12:16:25;;;;;;;6.03;5.43;;;18.20;99.90;;;;;;5027522;28;20467;-74
2021/06/25 12:18:53;;;;;;;5.77;5.27;;;18.40;99.90;;;;;;5027849;28;20487;-74
2021/06/25 12:21:22;;;;;;;5.57;5.07;;;18.40;99.90;;;;;;5027373;28;20500;-74
2021/06/25 12:23:57;;;;;;;4.70;4.30;;;18.30;99.90;;;;;;5027390;28;20459;-74
2021/06/25 12:26:25;;;;;;;8.13;4.40;;;18.30;99.90;;;;;;5027666;28;20807;-74
2021/06/25 12:28:53;;;;;;;4.53;4.13;;;18.40;99.90;;;;;;5027562;28;20464;-74
2021/06/25 12:31:22;;;;;;;4.40;4.00;;;18.40;99.90;;;;;;5027704;28;20506;-75
2021/06/25 12:33:49;;;;;;;4.77;4.27;;;18.30;99.90;;;;;;5028122;28;20460;-74
2021/06/25 12:36:17;;;;;;;3.97;3.60;;;18.30;99.90;;;;;;5028119;28;20460;-74
2021/06/25 12:38:47;;;;;;;4.90;4.20;;;18.30;99.90;;;;;;5028559;28;20862;-74
2021/06/25 12:41:14;;;;;;;5.47;4.17;;;18.30;99.90;;;;;;5028121;28;20519;-74
2021/06/25 12:43:43;;;;;;;3.77;3.43;;;18.30;99.90;;;;;;5028155;28;20951;-75
2021/06/25 12:46:12;;;;;;;5.00;4.10;;;18.40;99.90;;;;;;5028520;28;20464;-74
2021/06/25 12:48:45;;;;;;;4.00;3.70;;;18.40;99.90;;;;;;5027980;28;20469;-74
2021/06/25 12:51:13;;;;;;;4.20;3.80;;;18.40;99.90;;;;;;5027151;28;21294;-75
2021/06/25 12:53:43;;;;;;;4.63;4.23;;;18.40;99.90;;;;;;5027849;28;20472;-74
2021/06/25 12:56:12;;;;;;;4.60;4.10;;;18.40;99.90;;;;;;5028441;28;20457;-74
2021/06/25 12:58:40;;;;;;;5.13;4.63;;;18.40;99.90;;;;;;5027966;28;20534;-74
2021/06/25 13:01:11;;;;;;;4.30;3.87;;;18.50;99.90;;;;;;5031616;28;20496;-74
2021/06/25 13:03:38;;;;;;;4.80;4.40;;;18.50;99.90;;;;;;5027825;28;20471;-75
2021/06/25 13:06:33;;;;;;;5.10;4.60;;;18.60;99.90;;;;;;5028358;28;20468;-74